Time;durP1;ratioP1;P1;durP2;ratioP2;P2;SDS_P1;SDS_P2;PMS_P1;PMS_P2;Temp;Humidity;BMP_temperature;BMP_pressure;BME280_temperature;BME280_humidity;BME280_pressure;Samples;Min_cycle;Max_cycle;Signal;HPM_P1;HPM_P2
2021/03/24 00:00:26;;;;;;;;;;;-0.60;99.90;;;;;;5094137;28;19949;-76
2021/03/24 00:02:55;;;;;;;;;;;-0.60;99.90;;;;;;5092865;28;19916;-77
2021/03/24 00:05:22;;;;;;;;;;;-0.60;99.90;;;;;;5093816;28;19912;-76
2021/03/24 00:07:47;;;;;;;;;;;-0.60;99.90;;;;;;5093617;28;19908;-76
2021/03/24 00:10:14;;;;;;;;;;;-0.60;99.90;;;;;;5090546;28;19908;-76
2021/03/24 00:12:39;;;;;;;;;;;-0.50;99.90;;;;;;5090325;28;19912;-76
2021/03/24 00:15:07;;;;;;;;;;;-0.60;99.90;;;;;;5111540;28;19908;-76
2021/03/24 00:17:32;;;;;;;;;;;-0.60;99.90;;;;;;5111243;28;19915;-76
2021/03/24 00:19:58;;;;;;;;;;;-0.60;99.90;;;;;;5110305;28;19908;-76
2021/03/24 00:22:23;;;;;;;;;;;-0.60;99.90;;;;;;5111499;28;20288;-76
2021/03/24 00:24:49;;;;;;;;;;;-0.60;99.90;;;;;;5111491;28;19961;-74
2021/03/24 00:27:14;;;;;;;;;;;-0.60;99.90;;;;;;5109668;28;19922;-76
2021/03/24 00:29:40;;;;;;;;;;;-0.70;99.90;;;;;;5110849;28;19915;-75
2021/03/24 00:32:06;;;;;;;;;;;-0.70;99.90;;;;;;5114396;28;19965;-76
2021/03/24 00:34:31;;;;;;;;;;;-0.80;99.90;;;;;;5114150;28;19912;-76
2021/03/24 00:36:56;;;;;;;;;;;-0.80;99.90;;;;;;5113998;28;20006;-76
2021/03/24 00:39:22;;;;;;;;;;;-0.90;99.90;;;;;;5114310;28;19907;-76
2021/03/24 00:41:47;;;;;;;;;;;-0.90;99.90;;;;;;5096758;28;19916;-76
2021/03/24 00:44:13;;;;;;;;;;;-1.00;99.90;;;;;;5110540;28;20022;-77
2021/03/24 00:46:39;;;;;;;;;;;-1.00;99.90;;;;;;5112499;28;19908;-76
2021/03/24 00:49:04;;;;;;;;;;;-1.00;99.90;;;;;;5113015;28;19957;-76
2021/03/24 00:51:30;;;;;;;;;;;-1.00;99.90;;;;;;5113516;28;19999;-76
2021/03/24 00:53:55;;;;;;;;;;;-1.10;99.90;;;;;;5113549;28;19908;-76
2021/03/24 00:56:22;;;;;;;;;;;-1.10;99.90;;;;;;5112331;28;19911;-76
2021/03/24 00:58:47;;;;;;;;;;;-1.10;99.90;;;;;;5112593;28;19912;-77
2021/03/24 01:01:13;;;;;;;;;;;-1.10;99.90;;;;;;5113928;28;20254;-76
2021/03/24 01:03:38;;;;;;;;;;;-1.10;99.90;;;;;;5112543;28;19911;-76
2021/03/24 01:06:04;;;;;;;;;;;-1.10;99.90;;;;;;5113685;28;20015;-74
2021/03/24 01:08:29;;;;;;;;;;;-1.10;99.90;;;;;;5112552;28;19915;-76
2021/03/24 01:10:56;;;;;;;;;;;-1.20;99.90;;;;;;5109287;28;19908;-76
2021/03/24 01:13:22;;;;;;;;;;;-1.20;99.90;;;;;;5112102;28;20380;-76
2021/03/24 01:15:47;;;;;;;;;;;-1.30;99.90;;;;;;5113269;28;20283;-76
2021/03/24 01:18:13;;;;;;;;;;;-1.30;99.90;;;;;;5113445;28;19914;-77
2021/03/24 01:20:40;;;;;;;;;;;-1.30;99.90;;;;;;5113748;28;20296;-76
2021/03/24 01:23:05;;;;;;;;;;;-1.30;99.90;;;;;;5113555;28;20383;-77
2021/03/24 01:25:31;;;;;;;;;;;-1.40;99.90;;;;;;5113269;28;19908;-76
2021/03/24 01:27:57;;;;;;;;;;;-1.40;99.90;;;;;;5112998;28;19907;-75
2021/03/24 01:30:24;;;;;;;;;;;-1.40;99.90;;;;;;5113419;28;20391;-74
2021/03/24 01:32:49;;;;;;;;;;;-1.40;99.90;;;;;;5111872;28;19961;-76
2021/03/24 01:35:16;;;;;;;;;;;-1.40;99.90;;;;;;5111882;28;19920;-76
2021/03/24 01:37:43;;;;;;;;;;;-1.40;99.90;;;;;;5112699;28;19908;-76
2021/03/24 01:40:13;;;;;;;;;;;-1.40;99.90;;;;;;5109620;28;19908;-76
2021/03/24 01:42:39;;;;;;;;;;;-1.40;99.90;;;;;;5092538;28;19912;-75
2021/03/24 01:45:04;;;;;;;;;;;-1.40;99.90;;;;;;5092679;28;20400;-76
2021/03/24 01:47:30;;;;;;;;;;;-1.40;99.90;;;;;;5092171;28;19908;-76
2021/03/24 01:49:56;;;;;;;;;;;-1.40;99.90;;;;;;5091269;28;19915;-76
2021/03/24 01:52:22;;;;;;;;;;;-1.40;99.90;;;;;;5092540;28;20388;-76
2021/03/24 01:54:48;;;;;;;;;;;-1.40;99.90;;;;;;5091091;28;19912;-76
2021/03/24 01:57:21;;;;;;;;;;;-1.50;99.90;;;;;;5090518;28;20342;-76
2021/03/24 01:59:47;;;;;;;;;;;-1.50;99.90;;;;;;5092314;28;19912;-76
2021/03/24 02:02:20;;;;;;;;;;;-1.50;99.90;;;;;;5092033;28;19908;-76
2021/03/24 02:04:50;;;;;;;;;;;-1.50;99.90;;;;;;5090998;28;20007;-76
2021/03/24 02:07:21;;;;;;;;;;;-1.50;99.90;;;;;;5091696;28;19953;-76
2021/03/24 02:09:49;;;;;;;;;;;-1.50;99.90;;;;;;5092159;28;19912;-77
2021/03/24 02:12:20;;;;;;;;;;;-1.50;99.90;;;;;;5087749;28;19970;-76
2021/03/24 02:14:46;;;;;;;;;;;-1.50;99.90;;;;;;5092159;28;19969;-76
2021/03/24 02:17:12;;;;;;;;;;;-1.50;99.90;;;;;;5090265;28;19908;-74
2021/03/24 02:19:50;;;;;;;;;;;-1.50;99.90;;;;;;5091796;28;19926;-76
2021/03/24 02:22:19;;;;;;;;;;;-1.50;99.90;;;;;;5090637;28;19916;-76
2021/03/24 02:24:50;;;;;;;;;;;-1.50;99.90;;;;;;5091813;28;20373;-76
2021/03/24 02:27:16;;;;;;;;;;;-1.50;99.90;;;;;;5090196;28;19909;-75
2021/03/24 02:29:47;;;;;;;;;;;-1.50;99.90;;;;;;5091898;28;20315;-76
2021/03/24 02:32:14;;;;;;;;;;;-1.60;99.90;;;;;;5091640;28;19919;-76
2021/03/24 02:34:42;;;;;;;;;;;-1.60;99.90;;;;;;5091692;28;20030;-74
2021/03/24 02:37:08;;;;;;;;;;;-1.60;99.90;;;;;;5090970;28;19915;-76
2021/03/24 02:39:33;;;;;;;;;;;-1.60;99.90;;;;;;5090722;28;19908;-76
2021/03/24 02:42:01;;;;;;;;;;;-1.60;99.90;;;;;;5088413;28;20284;-76
2021/03/24 02:44:27;;;;;;;;;;;-1.60;99.90;;;;;;5091509;28;19912;-75
2021/03/24 02:46:53;;;;;;;;;;;-1.50;99.90;;;;;;5089706;28;19922;-74
2021/03/24 02:49:19;;;;;;;;;;;-1.60;99.90;;;;;;5090528;28;19990;-76
2021/03/24 02:51:45;;;;;;;;;;;-1.60;99.90;;;;;;5091487;28;20413;-75
2021/03/24 02:54:13;;;;;;;;;;;-1.70;99.90;;;;;;5091573;28;19970;-76
2021/03/24 02:56:38;;;;;;;;;;;-1.60;99.90;;;;;;5089845;28;20371;-75
2021/03/24 02:59:05;;;;;;;;;;;-1.70;99.90;;;;;;5091469;28;19979;-76
2021/03/24 03:01:35;;;;;;;;;;;-1.70;99.90;;;;;;5091134;28;19908;-76
2021/03/24 03:04:04;;;;;;;;;;;-1.70;99.90;;;;;;5090012;28;19958;-75
2021/03/24 03:06:30;;;;;;;;;;;-1.70;99.90;;;;;;5091074;28;19998;-76
2021/03/24 03:09:04;;;;;;;;;;;-1.70;99.90;;;;;;5090074;28;20359;-76
2021/03/24 03:11:39;;;;;;;;;;;-1.80;99.90;;;;;;5088375;28;20412;-76
2021/03/24 03:14:14;;;;;;;;;;;-1.80;99.90;;;;;;5091033;28;20362;-76
2021/03/24 03:16:54;;;;;;;;;;;-1.80;99.90;;;;;;5092708;28;19986;-76
2021/03/24 03:19:37;;;;;;;;;;;-1.80;99.90;;;;;;5095435;28;20432;-76
2021/03/24 03:22:26;;;;;;;;;;;-1.80;99.90;;;;;;5095218;28;19916;-75
2021/03/24 03:24:53;;;;;;;;;;;-1.90;99.90;;;;;;5092178;28;19915;-76
2021/03/24 03:27:20;;;;;;;;;;;-1.90;99.90;;;;;;5094801;28;19908;-76
2021/03/24 03:29:47;;;;;;;;;;;-1.90;99.90;;;;;;5095112;28;19947;-76
2021/03/24 03:32:14;;;;;;;;;;;-1.90;99.90;;;;;;5095123;28;20002;-76
2021/03/24 03:34:41;;;;;;;;;;;-1.90;99.90;;;;;;5094969;28;19916;-75
2021/03/24 03:37:07;;;;;;;;;;;-1.90;99.90;;;;;;5095054;28;20350;-76
2021/03/24 03:39:33;;;;;;;;;;;-1.90;99.90;;;;;;5095098;28;19908;-76
2021/03/24 03:42:00;;;;;;;;;;;-1.90;99.90;;;;;;5092049;28;19908;-76
2021/03/24 03:44:25;;;;;;;;;;;-1.90;99.90;;;;;;5094854;28;19908;-76
2021/03/24 03:46:53;;;;;;;;;;;-2.00;99.90;;;;;;5094599;28;20212;-76
2021/03/24 03:49:19;;;;;;;;;;;-2.00;99.90;;;;;;5094677;28;19935;-76
2021/03/24 03:51:48;;;;;;;;;;;-2.00;99.90;;;;;;5094743;28;20352;-76
2021/03/24 03:54:19;;;;;;;;;;;-2.10;99.90;;;;;;5094781;28;19993;-76
2021/03/24 03:56:52;;;;;;;;;;;-2.10;99.90;;;;;;5093208;28;20024;-76
2021/03/24 03:59:24;;;;;;;;;;;-2.10;99.90;;;;;;5094538;28;19908;-74
2021/03/24 04:01:52;;;;;;;;;;;-2.00;99.90;;;;;;5094501;28;19978;-76
2021/03/24 04:04:23;;;;;;;;;;;-2.10;99.90;;;;;;5094523;28;19936;-76
2021/03/24 04:06:57;;;;;;;;;;;-2.10;99.90;;;;;;5094165;28;19908;-76
2021/03/24 04:09:22;;;;;;;;;;;-2.20;99.90;;;;;;5094375;28;19912;-74
2021/03/24 04:11:52;;;;;;;;;;;-2.20;99.90;;;;;;5091477;28;19916;-76
2021/03/24 04:14:19;;;;;;;;;;;-2.10;99.90;;;;;;5094124;28;19977;-76
2021/03/24 04:16:45;;;;;;;;;;;-2.10;99.90;;;;;;5093969;28;20422;-76
2021/03/24 04:19:13;;;;;;;;;;;-2.10;99.90;;;;;;5094226;28;19908;-76
2021/03/24 04:21:40;;;;;;;;;;;-2.10;99.90;;;;;;5093011;28;19943;-76
2021/03/24 04:24:10;;;;;;;;;;;-2.10;99.90;;;;;;5094197;28;19913;-75
2021/03/24 04:26:37;;;;;;;;;;;-2.10;99.90;;;;;;5092809;28;19908;-76
2021/03/24 04:29:06;;;;;;;;;;;-2.20;99.90;;;;;;5093648;28;19915;-76
2021/03/24 04:31:32;;;;;;;;;;;-2.20;99.90;;;;;;5093998;28;19957;-76
2021/03/24 04:33:57;;;;;;;;;;;-2.20;99.90;;;;;;5093988;28;19954;-76
2021/03/24 04:36:23;;;;;;;;;;;-2.20;99.90;;;;;;5093700;28;20323;-76
2021/03/24 04:38:50;;;;;;;;;;;-2.20;99.90;;;;;;5092671;28;20365;-76
2021/03/24 04:41:25;;;;;;;;;;;-2.10;99.90;;;;;;5089578;28;19908;-76
2021/03/24 04:43:55;;;;;;;;;;;-2.10;99.90;;;;;;5093604;28;19923;-76
2021/03/24 04:46:26;;;;;;;;;;;-2.20;99.90;;;;;;5092161;28;20028;-76
2021/03/24 04:48:54;;;;;;;;;;;-2.20;99.90;;;;;;5093784;28;19908;-76
2021/03/24 04:51:21;;;;;;;;;;;-2.20;99.90;;;;;;5093514;28;19912;-76
2021/03/24 04:53:51;;;;;;;;;;;-2.30;99.90;;;;;;5093986;28;19915;-75
2021/03/24 04:56:18;;;;;;;;;;;-2.30;99.90;;;;;;5093355;28;20365;-75
2021/03/24 04:58:45;;;;;;;;;;;-2.30;99.90;;;;;;5093419;28;19908;-76
2021/03/24 05:01:14;;;;;;;;;;;-2.30;99.90;;;;;;5092127;28;19965;-76
2021/03/24 05:03:41;;;;;;;;;;;-2.30;99.90;;;;;;5093442;28;19916;-76
2021/03/24 05:06:14;;;;;;;;;;;-2.40;99.90;;;;;;5091745;28;19951;-76
2021/03/24 05:08:41;;;;;;;;;;;-2.40;99.90;;;;;;5093268;28;20136;-76
2021/03/24 05:11:15;;;;;;;;;;;-2.40;99.90;;;;;;5090378;28;19912;-76
2021/03/24 05:13:50;;;;;;;;;;;-2.40;99.90;;;;;;5092049;28;19909;-76
2021/03/24 05:16:29;;;;;;;;;;;-2.40;99.90;;;;;;5092780;28;19916;-75
2021/03/24 05:18:55;;;;;;;;;;;-2.40;99.90;;;;;;5092966;28;20334;-76
2021/03/24 05:21:26;;;;;;;;;;;-2.40;99.90;;;;;;5092959;28;19909;-76
2021/03/24 05:23:59;;;;;;;;;;;-2.40;99.90;;;;;;5093037;28;19919;-76
2021/03/24 05:26:45;;;;;;;;;;;-2.40;99.90;;;;;;5092660;28;19915;-75
2021/03/24 05:29:12;;;;;;;;;;;-2.50;99.90;;;;;;5092932;28;19912;-76
2021/03/24 05:31:45;;;;;;;;;;;-2.50;99.90;;;;;;5092766;28;19908;-74
2021/03/24 05:34:17;;;;;;;;;;;-2.50;99.90;;;;;;5092681;28;19912;-75
2021/03/24 05:36:45;;;;;;;;;;;-2.50;99.90;;;;;;5092442;28;19999;-76
2021/03/24 05:39:10;;;;;;;;;;;-2.50;99.90;;;;;;5090960;28;19961;-75
2021/03/24 05:42:02;;;;;;;;;;;-2.50;99.90;;;;;;5088473;28;19916;-76
2021/03/24 05:44:46;;;;;;;;;;;-2.60;99.90;;;;;;5083864;28;19912;-76
2021/03/24 05:47:30;;;;;;;;;;;-2.60;99.90;;;;;;5092325;28;19915;-73
2021/03/24 05:49:56;;;;;;;;;;;-2.50;99.90;;;;;;5092580;28;19908;-76
2021/03/24 05:52:34;;;;;;;;;;;-2.40;99.90;;;;;;5092332;28;19908;-76
2021/03/24 05:55:18;;;;;;;;;;;-2.30;99.90;;;;;;5091407;28;20361;-76
2021/03/24 05:57:46;;;;;;;;;;;-2.30;99.90;;;;;;5092107;28;19915;-76
2021/03/24 06:00:30;;;;;;;;;;;-2.20;99.90;;;;;;5092421;28;20074;-75
2021/03/24 06:03:11;;;;;;;;;;;-2.20;99.90;;;;;;5090862;28;19920;-76
2021/03/24 06:05:55;;;;;;;;;;;-2.10;99.90;;;;;;5092168;28;19954;-74
2021/03/24 06:08:30;;;;;;;;;;;-2.10;99.90;;;;;;5092226;28;19909;-75
2021/03/24 06:11:10;;;;;;;;;;;-1.90;99.90;;;;;;5087821;28;19915;-75
2021/03/24 06:13:54;;;;;;;;;;;-1.90;99.90;;;;;;5090618;28;19912;-75
2021/03/24 06:16:22;;;;;;;;;;;-1.80;99.90;;;;;;5091572;28;19967;-76
2021/03/24 06:18:50;;;;;;;;;;;-1.80;99.90;;;;;;5092006;28;19908;-76
2021/03/24 06:21:34;;;;;;;;;;;-1.70;99.90;;;;;;5091893;28;20474;-76
2021/03/24 06:24:23;;;;;;;;;;;-1.60;99.90;;;;;;5090569;28;19912;-76
2021/03/24 06:26:54;;;;;;;;;;;-1.60;99.90;;;;;;5070990;28;19908;-76
2021/03/24 06:29:29;;;;;;;;;;;-1.50;99.90;;;;;;5090758;28;19909;-76
2021/03/24 06:31:55;;;;;;;;;;;-1.40;99.90;;;;;;5091687;28;19916;-76
2021/03/24 06:34:23;;;;;;;;;;;-1.20;99.90;;;;;;5091829;28;19908;-76
2021/03/24 06:36:51;;;;;;;;;;;-1.20;99.90;;;;;;5091588;28;19913;-76
2021/03/24 06:39:40;;;;;;;;;;;-1.10;99.90;;;;;;5090481;28;19916;-74
2021/03/24 06:42:17;;;;;;;;;;;-1.10;99.90;;;;;;5088426;28;19908;-75
2021/03/24 06:45:09;;;;;;;;;;;-1.00;99.90;;;;;;5091705;28;20299;-76
2021/03/24 06:47:34;;;;;;;;;;;-1.00;99.90;;;;;;5091105;28;19912;-76
2021/03/24 06:50:19;;;;;;;;;;;-0.90;99.90;;;;;;5090793;28;20042;-76
2021/03/24 06:53:03;;;;;;;;;;;-0.80;99.90;;;;;;5090030;28;19908;-76
2021/03/24 06:55:46;;;;;;;;;;;-0.80;99.90;;;;;;5091293;28;19916;-76
2021/03/24 06:58:22;;;;;;;;;;;-0.70;99.90;;;;;;5090145;28;20365;-75
2021/03/24 07:00:50;;;;;;;;;;;-0.60;99.90;;;;;;5085859;28;20847;-76
2021/03/24 07:03:15;;;;;;;;;;;-0.50;99.90;;;;;;5087512;28;19920;-76
2021/03/24 07:05:53;;;;;;;;;;;-0.40;99.90;;;;;;5089723;28;20340;-76
2021/03/24 07:08:19;;;;;;;;;;;-0.40;99.90;;;;;;5088882;28;19909;-76
2021/03/24 07:11:02;;;;;;;;;;;-0.30;99.90;;;;;;5091547;28;19919;-75
2021/03/24 07:13:39;;;;;;;;;;;-0.10;99.90;;;;;;5090040;28;19908;-76
2021/03/24 07:16:27;;;;;;;;;;;-0.10;99.90;;;;;;5090136;28;20339;-76
2021/03/24 07:19:02;;;;;;;;;;;0.10;99.90;;;;;;5089201;28;19908;-76
2021/03/24 07:21:39;;;;;;;;;;;0.20;99.90;;;;;;5090406;28;19947;-77
2021/03/24 07:24:04;;;;;;;;;;;0.20;99.90;;;;;;5090164;28;19919;-75
2021/03/24 07:26:37;;;;;;;;;;;0.30;99.90;;;;;;5089929;28;19986;-77
2021/03/24 07:29:05;;;;;;;;;;;0.40;99.90;;;;;;5090285;28;19915;-75
2021/03/24 07:31:49;;;;;;;;;;;0.50;99.90;;;;;;5089980;28;19909;-75
2021/03/24 07:34:14;;;;;;;;;;;0.60;99.90;;;;;;5089902;28;20182;-76
2021/03/24 07:37:06;;;;;;;;;;;0.70;99.90;;;;;;5088448;28;19999;-76
2021/03/24 07:39:50;;;;;;;;;;;0.80;99.90;;;;;;5088844;28;20384;-76
2021/03/24 07:42:28;;;;;;;;;;;1.00;99.90;;;;;;5087498;28;19919;-77
2021/03/24 07:45:12;;;;;;;;;;;1.10;99.90;;;;;;5084258;28;19943;-76
2021/03/24 07:47:46;;;;;;;;;;;1.30;99.90;;;;;;5088924;28;19908;-76
2021/03/24 07:50:16;;;;;;;;;;;1.50;99.90;;;;;;5090376;28;20134;-76
2021/03/24 07:52:48;;;;;;;;;;;1.70;99.90;;;;;;5088970;28;20319;-75
2021/03/24 07:55:32;;;;;;;;;;;1.90;99.90;;;;;;5089447;28;19912;-75
2021/03/24 07:58:00;;;;;;;;;;;2.30;99.90;;;;;;5070441;28;19909;-76
2021/03/24 08:00:30;;;;;;;;;;;3.20;99.90;;;;;;5080831;28;19931;-77
2021/03/24 08:02:57;;;;;;;;;;;4.30;99.90;;;;;;5093520;28;19915;-77
2021/03/24 08:05:26;;;;;;;;;;;5.50;99.90;;;;;;5091242;28;20319;-77
2021/03/24 08:08:10;;;;;;;;;;;6.50;99.90;;;;;;5093720;28;19908;-76
2021/03/24 08:10:38;;;;;;;;;;;7.60;99.90;;;;;;5092962;28;19908;-76
2021/03/24 08:13:23;;;;;;;;;;;8.70;99.90;;;;;;5092918;28;20307;-76
2021/03/24 08:15:57;;;;;;;;;;;9.60;99.90;;;;;;5092277;28;19915;-77
2021/03/24 08:18:26;;;;;;;;;;;10.60;99.90;;;;;;5094509;28;19920;-77
2021/03/24 08:20:52;;;;;;;;;;;11.30;99.90;;;;;;5094278;28;19908;-76
2021/03/24 08:23:27;;;;;;;;;;;11.90;99.20;;;;;;5094269;28;19918;-77
2021/03/24 08:25:55;;;;;;;;;;;12.30;97.90;;;;;;5092949;28;19962;-76
2021/03/24 08:28:28;;;;;;;;;;;12.80;97.20;;;;;;5094933;28;19923;-78
2021/03/24 08:31:07;;;;;;;;;;;13.30;96.40;;;;;;5097812;28;19981;-78
2021/03/24 08:33:51;;;;;;;;;;;13.60;95.20;;;;;;5085797;28;19912;-77
2021/03/24 08:36:19;;;;;;;;;;;14.00;94.60;;;;;;5093531;28;19920;-77
2021/03/24 08:38:52;;;;;;;;;;;14.40;93.60;;;;;;5098874;28;19938;-78
2021/03/24 08:41:21;;;;;;;;;;;14.60;93.60;;;;;;5105766;28;19912;-78
2021/03/24 08:44:07;;;;;;;;;;;14.80;93.10;;;;;;5099243;28;19979;-78
2021/03/24 08:46:44;;;;;;;;;;;15.00;91.60;;;;;;5100234;28;19908;-77
2021/03/24 08:49:13;;;;;;;;;;;15.20;91.10;;;;;;5100874;28;19918;-77
2021/03/24 08:51:38;;;;;;;;;;;15.50;90.30;;;;;;5099844;28;19912;-79
2021/03/24 08:54:24;;;;;;;;;;;15.50;89.40;;;;;;5098465;28;20620;-79
2021/03/24 08:56:53;;;;;;;;;;;15.50;89.40;;;;;;5085531;28;19908;-77
2021/03/24 08:59:28;;;;;;;;;;;15.50;90.70;;;;;;5093580;28;19923;-77
2021/03/24 09:02:02;;;;;;;;;;;15.70;89.80;;;;;;5093464;28;19915;-77
2021/03/24 09:04:31;;;;;;;;;;;16.10;88.10;;;;;;5092351;28;19912;-77
2021/03/24 09:07:04;;;;;;;;;;;16.20;86.00;;;;;;5092619;28;19916;-77
2021/03/24 09:09:35;;;;;;;;;;;16.00;87.40;;;;;;5093333;28;19951;-77
2021/03/24 09:12:05;;;;;;;;;;;15.80;86.70;;;;;;5092825;28;19908;-77
2021/03/24 09:14:36;;;;;;;;;;;15.70;86.00;;;;;;5092378;28;19912;-77
2021/03/24 09:17:04;;;;;;;;;;;15.70;86.20;;;;;;5092710;28;19908;-77
2021/03/24 09:19:48;;;;;;;;;;;15.90;88.60;;;;;;5093430;28;19951;-77
2021/03/24 09:22:37;;;;;;;;;;;16.30;87.30;;;;;;5093742;28;20321;-77
2021/03/24 09:25:20;;;;;;;;;;;16.60;85.60;;;;;;5094380;28;19908;-77
2021/03/24 09:27:58;;;;;;;;;;;17.00;82.60;;;;;;5092565;28;19916;-77
2021/03/24 09:30:42;;;;;;;;;;;17.10;81.20;;;;;;5092791;28;20365;-77
2021/03/24 09:33:07;;;;;;;;;;;17.30;79.60;;;;;;5092841;28;19981;-77
2021/03/24 09:35:39;;;;;;;;;;;17.10;82.10;;;;;;5093809;28;20224;-77
2021/03/24 09:38:07;;;;;;;;;;;17.30;82.40;;;;;;5093630;28;19912;-77
2021/03/24 09:40:35;;;;;;;;;;;17.60;82.20;;;;;;5092644;28;20384;-77
2021/03/24 09:43:04;;;;;;;;;;;18.00;80.30;;;;;;5112924;28;20375;-77
2021/03/24 09:45:32;;;;;;;;;;;18.10;77.20;;;;;;5113157;28;20041;-78
2021/03/24 09:48:13;;;;;;;;;;;18.00;79.10;;;;;;5113117;28;20334;-77
2021/03/24 09:50:57;;;;;;;;;;;18.20;77.30;;;;;;5112691;28;19908;-77
2021/03/24 09:53:26;;;;;;;;;;;18.30;79.40;;;;;;5113027;28;19943;-76
2021/03/24 09:55:54;;;;;;;;;;;18.60;80.00;;;;;;5112975;28;19908;-75
2021/03/24 09:58:22;;;;;;;;;;;18.90;77.80;;;;;;5112719;28;19911;-76
2021/03/24 10:01:01;;;;;;;;;;;18.90;75.50;;;;;;5111511;28;19908;-77
2021/03/24 10:03:42;;;;;;;;;;;19.10;77.40;;;;;;5111212;28;19922;-77
2021/03/24 10:06:11;;;;;;;;;;;19.10;74.80;;;;;;5112078;28;19908;-77
2021/03/24 10:08:43;;;;;;;;;;;19.20;75.30;;;;;;5112423;28;19916;-77
2021/03/24 10:11:11;;;;;;;;;;;19.40;76.20;;;;;;5102020;28;20426;-76
2021/03/24 10:13:46;;;;;;;;;;;19.70;73.70;;;;;;5092142;28;19915;-75
2021/03/24 10:16:15;;;;;;;;;;;19.80;72.70;;;;;;5091498;28;19917;-75
2021/03/24 10:19:03;;;;;;;;;;;19.30;72.20;;;;;;5090864;28;19908;-76
2021/03/24 10:21:37;;;;;;;;;;;19.60;73.80;;;;;;5092032;28;19928;-75
2021/03/24 10:24:09;;;;;;;;;;;20.20;73.30;;;;;;5092042;28;19912;-75
2021/03/24 10:26:45;;;;;;;;;;;20.40;69.40;;;;;;5091931;28;19908;-75
2021/03/24 10:29:13;;;;;;;;;;;20.50;68.60;;;;;;5090658;28;20093;-75
2021/03/24 10:31:41;;;;;;;;;;;20.30;69.80;;;;;;5091448;28;19912;-75
2021/03/24 10:34:07;;;;;;;;;;;20.40;69.10;;;;;;5091710;28;19912;-76
2021/03/24 10:36:35;;;;;;;;;;;20.70;68.40;;;;;;5091501;28;19913;-75
2021/03/24 10:39:13;;;;;;;;;;;20.90;67.90;;;;;;5091699;28;19912;-76
2021/03/24 10:41:49;;;;;;;;;;;21.00;66.80;;;;;;5088479;28;19909;-75
2021/03/24 10:44:17;;;;;;;;;;;20.50;65.60;;;;;;5091693;28;20003;-75
2021/03/24 10:46:51;;;;;;;;;;;20.40;66.60;;;;;;5091473;28;19912;-75
2021/03/24 10:49:18;;;;;;;;;;;20.60;67.50;;;;;;5090367;28;19915;-75
2021/03/24 10:52:00;;;;;;;;;;;20.70;67.40;;;;;;5091465;28;20310;-75
2021/03/24 10:54:28;;;;;;;;;;;20.70;67.10;;;;;;5091518;28;19908;-76
2021/03/24 10:57:04;;;;;;;;;;;20.90;66.20;;;;;;5091254;28;20006;-76
2021/03/24 10:59:32;;;;;;;;;;;20.90;67.10;;;;;;5091520;28;19934;-75
2021/03/24 11:02:04;;;;;;;;;;;21.20;66.20;;;;;;5091237;28;19909;-76
2021/03/24 11:04:49;;;;;;;;;;;21.30;64.70;;;;;;5091296;28;19912;-75
2021/03/24 11:07:37;;;;;;;;;;;21.10;63.20;;;;;;5079903;28;19998;-75
2021/03/24 11:10:21;;;;;;;;;;;20.90;61.80;;;;;;5090725;28;19908;-76
2021/03/24 11:12:51;;;;;;;;;;;20.90;64.00;;;;;;5097582;28;19912;-77
2021/03/24 11:15:22;;;;;;;;;;;20.50;63.10;;;;;;5102332;28;19923;-76
2021/03/24 11:17:57;;;;;;;;;;;20.30;65.20;;;;;;5085534;28;19912;-76
2021/03/24 11:20:41;;;;;;;;;;;20.50;64.20;;;;;;5088765;28;19908;-76
2021/03/24 11:23:10;;;;;;;;;;;20.60;63.90;;;;;;5089276;28;20083;-76
2021/03/24 11:25:39;;;;;;;;;;;20.50;63.20;;;;;;5089277;28;19915;-76
2021/03/24 11:28:19;;;;;;;;;;;20.50;62.40;;;;;;5089973;28;19998;-76
2021/03/24 11:30:50;;;;;;;;;;;20.60;63.70;;;;;;5085350;28;19912;-76
2021/03/24 11:33:31;;;;;;;;;;;20.60;63.20;;;;;;5089613;28;19908;-76
2021/03/24 11:35:59;;;;;;;;;;;20.80;61.70;;;;;;5090343;28;20117;-76
2021/03/24 11:38:28;;;;;;;;;;;21.00;60.70;;;;;;5093899;28;19912;-75
2021/03/24 11:40:53;;;;;;;;;;;21.40;61.50;;;;;;5091981;28;19912;-76
2021/03/24 11:43:27;;;;;;;;;;;21.80;59.30;;;;;;5094806;28;19965;-76
2021/03/24 11:46:05;;;;;;;;;;;21.80;57.40;;;;;;5094567;28;20268;-76
2021/03/24 11:48:42;;;;;;;;;;;22.00;59.30;;;;;;5093069;28;19916;-76
2021/03/24 11:51:26;;;;;;;;;;;21.70;57.90;;;;;;5094736;28;20020;-75
2021/03/24 11:54:10;;;;;;;;;;;21.60;57.50;;;;;;5094964;28;19916;-76
2021/03/24 11:56:45;;;;;;;;;;;21.20;58.70;;;;;;5094519;28;19947;-76
2021/03/24 11:59:25;;;;;;;;;;;21.10;58.90;;;;;;5093378;28;20460;-76
2021/03/24 12:02:06;;;;;;;;;;;21.10;58.80;;;;;;5094694;28;19909;-75
2021/03/24 12:04:50;;;;;;;;;;;21.10;59.70;;;;;;5088942;28;19917;-76
2021/03/24 12:07:27;;;;;;;;;;;20.80;60.10;;;;;;5090628;28;19915;-75
2021/03/24 12:10:00;;;;;;;;;;;20.60;59.80;;;;;;5081937;28;19912;-76
2021/03/24 12:12:26;;;;;;;;;;;20.10;60.80;;;;;;5084212;28;19952;-76
2021/03/24 12:15:03;;;;;;;;;;;19.10;62.90;;;;;;5079328;28;19993;-76
2021/03/24 12:17:30;;;;;;;;;;;18.40;63.70;;;;;;5087669;28;19912;-76
2021/03/24 12:20:08;;;;;;;;;;;17.90;65.40;;;;;;5093828;28;20073;-75
2021/03/24 12:22:34;;;;;;;;;;;17.40;65.10;;;;;;5094207;28;19912;-75
2021/03/24 12:25:18;;;;;;;;;;;16.90;66.60;;;;;;5094373;28;20384;-76
2021/03/24 12:27:44;;;;;;;;;;;16.40;66.90;;;;;;5093909;28;20044;-75
2021/03/24 12:30:19;;;;;;;;;;;16.10;68.20;;;;;;5092706;28;20361;-75
2021/03/24 12:32:45;;;;;;;;;;;16.00;68.60;;;;;;5092740;28;20365;-75
2021/03/24 12:35:18;;;;;;;;;;;15.80;69.50;;;;;;5093977;28;20045;-75
2021/03/24 12:37:45;;;;;;;;;;;15.50;70.20;;;;;;5093721;28;20469;-75
2021/03/24 12:40:13;;;;;;;;;;;15.40;71.90;;;;;;5094480;28;19908;-75
2021/03/24 12:42:38;;;;;;;;;;;15.30;69.70;;;;;;5105340;28;20053;-75
2021/03/24 12:45:24;;;;;;;;;;;15.30;71.00;;;;;;5114342;28;19947;-75
2021/03/24 12:47:50;;;;;;;;;;;15.30;71.80;;;;;;5112471;28;19915;-75
2021/03/24 12:50:29;;;;;;;;;;;15.20;72.10;;;;;;5113994;28;19908;-75
2021/03/24 12:52:59;;;;;;;;;;;15.20;72.00;;;;;;5113967;28;19911;-76
2021/03/24 12:55:24;;;;;;;;;;;15.00;71.00;;;;;;5114009;28;19999;-75
2021/03/24 12:57:53;;;;;;;;;;;14.80;72.20;;;;;;5113800;28;19955;-75
2021/03/24 13:00:27;;;;;;;;;;;14.60;70.80;;;;;;5113950;28;19907;-75
2021/03/24 13:03:11;;;;;;;;;;;14.50;71.90;;;;;;5113777;28;19912;-75
2021/03/24 13:05:41;;;;;;;;;;;14.40;71.50;;;;;;5113450;28;19912;-75
2021/03/24 13:08:09;;;;;;;;;;;14.30;71.20;;;;;;5113973;28;19908;-75
2021/03/24 13:11:04;;;;;;;;;;;14.30;72.00;;;;;;5107996;28;20040;-75
2021/03/24 13:13:30;;;;;;;;;;;14.20;73.10;;;;;;5087843;28;19915;-75
2021/03/24 13:15:59;;;;;;;;;;;14.20;72.30;;;;;;5092681;28;19908;-75
2021/03/24 13:18:28;;;;;;;;;;;14.20;70.80;;;;;;5079394;28;19995;-75
2021/03/24 13:20:53;;;;;;;;;;;14.20;70.50;;;;;;5091040;28;19915;-75
2021/03/24 13:23:22;;;;;;;;;;;14.30;71.40;;;;;;5092869;28;19912;-75
2021/03/24 13:25:51;;;;;;;;;;;14.30;69.90;;;;;;5092655;28;19919;-75
2021/03/24 13:28:22;;;;;;;;;;;14.20;70.10;;;;;;5093000;28;19912;-75
2021/03/24 13:30:59;;;;;;;;;;;14.20;70.00;;;;;;5092765;28;20369;-75
2021/03/24 13:33:27;;;;;;;;;;;14.10;69.00;;;;;;5092737;28;20335;-75
2021/03/24 13:35:56;;;;;;;;;;;14.20;69.00;;;;;;5092458;28;19922;-75
2021/03/24 13:38:28;;;;;;;;;;;14.10;68.10;;;;;;5092805;28;19908;-75
2021/03/24 13:40:53;;;;;;;;;;;14.10;67.90;;;;;;5089557;28;20364;-75
2021/03/24 13:43:30;;;;;;;;;;;14.10;65.60;;;;;;5092378;28;19960;-75
2021/03/24 13:46:07;;;;;;;;;;;14.20;68.10;;;;;;5092181;28;19915;-75
2021/03/24 13:48:37;;;;;;;;;;;14.20;67.90;;;;;;5091412;28;19908;-75
2021/03/24 13:51:25;;;;;;;;;;;14.20;66.10;;;;;;5092620;28;19908;-75
2021/03/24 13:54:01;;;;;;;;;;;14.10;64.00;;;;;;5092438;28;19999;-75
2021/03/24 13:56:29;;;;;;;;;;;14.00;63.70;;;;;;5092319;28;19970;-75
2021/03/24 13:58:58;;;;;;;;;;;14.00;63.90;;;;;;5092164;28;20414;-75
2021/03/24 14:01:42;;;;;;;;;;;14.10;64.50;;;;;;5092213;28;19908;-75
2021/03/24 14:04:10;;;;;;;;;;;14.10;64.50;;;;;;5092273;28;20392;-75
2021/03/24 14:06:36;;;;;;;;;;;14.20;64.00;;;;;;5092059;28;19939;-76
2021/03/24 14:09:07;;;;;;;;;;;14.30;64.70;;;;;;5092347;28;19947;-76
2021/03/24 14:11:53;;;;;;;;;;;14.40;63.30;;;;;;5089301;28;19913;-76
2021/03/24 14:14:34;;;;;;;;;;;14.40;61.30;;;;;;5087716;28;19978;-75
2021/03/24 14:17:05;;;;;;;;;;;14.40;61.70;;;;;;5091776;28;19970;-75
2021/03/24 14:19:41;;;;;;;;;;;14.40;60.70;;;;;;5092019;28;19977;-75
2021/03/24 14:22:22;;;;;;;;;;;14.30;62.10;;;;;;5092205;28;19912;-75
2021/03/24 14:24:47;;;;;;;;;;;14.30;61.30;;;;;;5089685;28;19950;-76
2021/03/24 14:27:25;;;;;;;;;;;14.40;62.40;;;;;;5091565;28;20357;-75
2021/03/24 14:29:57;;;;;;;;;;;14.40;60.10;;;;;;5092437;28;19908;-76
2021/03/24 14:32:26;;;;;;;;;;;14.40;60.70;;;;;;5092365;28;19915;-75
2021/03/24 14:35:10;;;;;;;;;;;14.50;62.30;;;;;;5091959;28;19916;-75
2021/03/24 14:37:39;;;;;;;;;;;14.50;61.50;;;;;;5091533;28;19997;-76
2021/03/24 14:40:14;;;;;;;;;;;14.50;62.40;;;;;;5090393;28;19908;-76
2021/03/24 14:42:42;;;;;;;;;;;14.50;62.50;;;;;;5095222;28;20344;-76
2021/03/24 14:45:26;;;;;;;;;;;14.60;62.40;;;;;;5112093;28;19934;-76